sensor_id;sensor_type;location;lat;lon;timestamp;temperature;humidity
23669;DHT22;12011;47.422;15.018;2023-05-10T00:00:00;9.90;99.90
23669;DHT22;12011;47.422;15.018;2023-05-10T00:02:48;9.80;99.90
23669;DHT22;12011;47.422;15.018;2023-05-10T00:05:18;9.80;99.90
23669;DHT22;12011;47.422;15.018;2023-05-10T00:07:51;9.80;99.90
23669;DHT22;12011;47.422;15.018;2023-05-10T00:10:21;9.80;99.90
23669;DHT22;12011;47.422;15.018;2023-05-10T00:12:53;9.80;99.90
23669;DHT22;12011;47.422;15.018;2023-05-10T00:15:24;9.70;99.90
23669;DHT22;12011;47.422;15.018;2023-05-10T00:17:56;9.70;99.90
23669;DHT22;12011;47.422;15.018;2023-05-10T00:20:28;9.70;99.90
23669;DHT22;12011;47.422;15.018;2023-05-10T00:23:03;9.60;99.90
23669;DHT22;12011;47.422;15.018;2023-05-10T00:25:34;9.60;99.90
23669;DHT22;12011;47.422;15.018;2023-05-10T00:28:05;9.60;99.90
23669;DHT22;12011;47.422;15.018;2023-05-10T00:30:38;9.60;99.90
23669;DHT22;12011;47.422;15.018;2023-05-10T00:33:08;9.00;99.90
23669;DHT22;12011;47.422;15.018;2023-05-10T00:35:42;9.50;99.90
23669;DHT22;12011;47.422;15.018;2023-05-10T00:38:18;9.40;99.90
23669;DHT22;12011;47.422;15.018;2023-05-10T00:40:52;9.40;99.90
23669;DHT22;12011;47.422;15.018;2023-05-10T00:43:30;9.50;99.90
23669;DHT22;12011;47.422;15.018;2023-05-10T00:46:01;9.40;99.90
23669;DHT22;12011;47.422;15.018;2023-05-10T00:48:31;9.30;99.90
23669;DHT22;12011;47.422;15.018;2023-05-10T00:51:04;9.30;99.90
23669;DHT22;12011;47.422;15.018;2023-05-10T00:53:39;9.30;99.90
23669;DHT22;12011;47.422;15.018;2023-05-10T00:56:09;9.40;98.90
23669;DHT22;12011;47.422;15.018;2023-05-10T00:58:41;9.30;99.90
23669;DHT22;12011;47.422;15.018;2023-05-10T01:01:14;9.40;99.90
23669;DHT22;12011;47.422;15.018;2023-05-10T01:03:47;9.30;99.90
23669;DHT22;12011;47.422;15.018;2023-05-10T01:06:20;9.30;99.90
23669;DHT22;12011;47.422;15.018;2023-05-10T01:08:56;9.30;99.90
23669;DHT22;12011;47.422;15.018;2023-05-10T01:11:31;9.20;99.90
23669;DHT22;12011;47.422;15.018;2023-05-10T01:14:06;9.20;99.90
23669;DHT22;12011;47.422;15.018;2023-05-10T01:16:40;9.20;99.90
23669;DHT22;12011;47.422;15.018;2023-05-10T01:19:18;9.20;99.90
23669;DHT22;12011;47.422;15.018;2023-05-10T01:21:58;9.20;99.90
23669;DHT22;12011;47.422;15.018;2023-05-10T01:25:16;9.10;99.90
23669;DHT22;12011;47.422;15.018;2023-05-10T01:31:30;9.10;99.90
23669;DHT22;12011;47.422;15.018;2023-05-10T01:34:16;9.00;99.90
23669;DHT22;12011;47.422;15.018;2023-05-10T01:36:57;9.00;99.90
23669;DHT22;12011;47.422;15.018;2023-05-10T01:39:39;9.00;99.90
23669;DHT22;12011;47.422;15.018;2023-05-10T01:42:20;9.00;99.90
23669;DHT22;12011;47.422;15.018;2023-05-10T01:45:00;8.90;99.90
23669;DHT22;12011;47.422;15.018;2023-05-10T01:47:42;8.90;99.90
23669;DHT22;12011;47.422;15.018;2023-05-10T01:50:24;9.00;99.90
23669;DHT22;12011;47.422;15.018;2023-05-10T01:53:00;9.00;99.90
23669;DHT22;12011;47.422;15.018;2023-05-10T01:55:35;9.00;99.90
23669;DHT22;12011;47.422;15.018;2023-05-10T01:58:17;8.90;99.90
23669;DHT22;12011;47.422;15.018;2023-05-10T02:00:52;8.90;99.90
23669;DHT22;12011;47.422;15.018;2023-05-10T02:03:29;8.90;99.90
23669;DHT22;12011;47.422;15.018;2023-05-10T02:06:07;8.80;99.90
23669;DHT22;12011;47.422;15.018;2023-05-10T02:08:45;8.80;99.90
23669;DHT22;12011;47.422;15.018;2023-05-10T02:11:19;8.80;99.90
23669;DHT22;12011;47.422;15.018;2023-05-10T02:13:50;8.70;99.90
23669;DHT22;12011;47.422;15.018;2023-05-10T02:16:28;8.60;99.90
23669;DHT22;12011;47.422;15.018;2023-05-10T02:19:02;8.60;99.90
23669;DHT22;12011;47.422;15.018;2023-05-10T02:21:42;8.60;99.90
23669;DHT22;12011;47.422;15.018;2023-05-10T02:24:13;8.60;99.90
23669;DHT22;12011;47.422;15.018;2023-05-10T02:26:49;8.60;99.90
23669;DHT22;12011;47.422;15.018;2023-05-10T02:29:28;7.80;99.90
23669;DHT22;12011;47.422;15.018;2023-05-10T02:32:02;8.60;99.90
23669;DHT22;12011;47.422;15.018;2023-05-10T02:34:35;8.50;99.90
23669;DHT22;12011;47.422;15.018;2023-05-10T02:37:12;8.50;99.90
23669;DHT22;12011;47.422;15.018;2023-05-10T02:39:46;8.50;99.90
23669;DHT22;12011;47.422;15.018;2023-05-10T02:42:18;8.50;99.90
23669;DHT22;12011;47.422;15.018;2023-05-10T02:45:03;8.50;99.90
23669;DHT22;12011;47.422;15.018;2023-05-10T02:47:40;8.50;99.90
23669;DHT22;12011;47.422;15.018;2023-05-10T02:50:13;8.50;99.90
23669;DHT22;12011;47.422;15.018;2023-05-10T02:52:51;8.50;99.90
23669;DHT22;12011;47.422;15.018;2023-05-10T02:55:26;8.60;99.90
23669;DHT22;12011;47.422;15.018;2023-05-10T02:58:04;8.60;99.90
23669;DHT22;12011;47.422;15.018;2023-05-10T03:00:38;8.60;99.90
23669;DHT22;12011;47.422;15.018;2023-05-10T03:03:16;8.50;99.90
23669;DHT22;12011;47.422;15.018;2023-05-10T03:05:49;8.50;99.90
23669;DHT22;12011;47.422;15.018;2023-05-10T03:08:31;8.50;99.90
23669;DHT22;12011;47.422;15.018;2023-05-10T03:11:21;8.40;99.90
23669;DHT22;12011;47.422;15.018;2023-05-10T03:14:13;8.40;99.90
23669;DHT22;12011;47.422;15.018;2023-05-10T03:16:58;8.40;99.90
23669;DHT22;12011;47.422;15.018;2023-05-10T03:19:48;8.40;99.90
23669;DHT22;12011;47.422;15.018;2023-05-10T03:22:32;8.30;99.90
23669;DHT22;12011;47.422;15.018;2023-05-10T03:25:12;8.30;99.90
23669;DHT22;12011;47.422;15.018;2023-05-10T03:27:48;8.30;99.90
23669;DHT22;12011;47.422;15.018;2023-05-10T03:30:20;8.40;99.90
23669;DHT22;12011;47.422;15.018;2023-05-10T03:32:52;8.30;99.90
23669;DHT22;12011;47.422;15.018;2023-05-10T03:35:26;8.30;99.90
23669;DHT22;12011;47.422;15.018;2023-05-10T03:37:57;8.30;99.90
23669;DHT22;12011;47.422;15.018;2023-05-10T03:40:29;8.30;99.90
23669;DHT22;12011;47.422;15.018;2023-05-10T03:43:14;8.30;99.90
23669;DHT22;12011;47.422;15.018;2023-05-10T03:45:46;8.30;99.90
23669;DHT22;12011;47.422;15.018;2023-05-10T03:48:17;8.30;99.90
23669;DHT22;12011;47.422;15.018;2023-05-10T03:50:51;8.40;99.90
23669;DHT22;12011;47.422;15.018;2023-05-10T03:53:28;8.40;99.90
23669;DHT22;12011;47.422;15.018;2023-05-10T03:56:01;8.40;99.90
23669;DHT22;12011;47.422;15.018;2023-05-10T03:58:36;8.50;99.90
23669;DHT22;12011;47.422;15.018;2023-05-10T04:01:06;8.60;99.90
23669;DHT22;12011;47.422;15.018;2023-05-10T04:03:39;8.60;99.90
23669;DHT22;12011;47.422;15.018;2023-05-10T04:06:12;8.60;99.90
23669;DHT22;12011;47.422;15.018;2023-05-10T04:08:56;8.60;99.90
23669;DHT22;12011;47.422;15.018;2023-05-10T04:11:36;8.60;99.90
23669;DHT22;12011;47.422;15.018;2023-05-10T04:14:07;8.50;99.90
23669;DHT22;12011;47.422;15.018;2023-05-10T04:16:50;8.40;99.90
23669;DHT22;12011;47.422;15.018;2023-05-10T04:19:23;8.40;99.90
23669;DHT22;12011;47.422;15.018;2023-05-10T04:21:58;8.30;99.90
23669;DHT22;12011;47.422;15.018;2023-05-10T04:24:31;8.30;99.90
23669;DHT22;12011;47.422;15.018;2023-05-10T04:27:06;8.30;99.90
23669;DHT22;12011;47.422;15.018;2023-05-10T04:29:37;8.30;99.90
23669;DHT22;12011;47.422;15.018;2023-05-10T04:32:10;8.40;99.90
23669;DHT22;12011;47.422;15.018;2023-05-10T04:34:39;8.40;99.90
23669;DHT22;12011;47.422;15.018;2023-05-10T04:37:12;8.50;99.90
23669;DHT22;12011;47.422;15.018;2023-05-10T04:39:54;8.60;99.90
23669;DHT22;12011;47.422;15.018;2023-05-10T04:42:28;8.70;99.90
23669;DHT22;12011;47.422;15.018;2023-05-10T04:45:00;8.80;99.90
23669;DHT22;12011;47.422;15.018;2023-05-10T04:47:30;9.00;99.90
23669;DHT22;12011;47.422;15.018;2023-05-10T04:50:03;9.10;99.90
23669;DHT22;12011;47.422;15.018;2023-05-10T04:52:35;9.20;99.90
23669;DHT22;12011;47.422;15.018;2023-05-10T04:55:11;9.30;99.90
23669;DHT22;12011;47.422;15.018;2023-05-10T04:57:44;9.40;99.90
23669;DHT22;12011;47.422;15.018;2023-05-10T05:00:17;9.60;99.90
23669;DHT22;12011;47.422;15.018;2023-05-10T05:02:52;9.70;99.90
23669;DHT22;12011;47.422;15.018;2023-05-10T05:05:22;9.80;99.90
23669;DHT22;12011;47.422;15.018;2023-05-10T05:07:54;10.00;99.90
23669;DHT22;12011;47.422;15.018;2023-05-10T05:10:29;10.10;99.90
23669;DHT22;12011;47.422;15.018;2023-05-10T05:13:01;10.30;99.90
23669;DHT22;12011;47.422;15.018;2023-05-10T05:15:32;10.30;99.90
23669;DHT22;12011;47.422;15.018;2023-05-10T05:18:07;10.50;99.90
23669;DHT22;12011;47.422;15.018;2023-05-10T05:20:41;10.30;99.90
23669;DHT22;12011;47.422;15.018;2023-05-10T05:23:20;10.80;99.90
23669;DHT22;12011;47.422;15.018;2023-05-10T05:25:51;11.40;99.00
23669;DHT22;12011;47.422;15.018;2023-05-10T05:28:25;11.50;97.00
23669;DHT22;12011;47.422;15.018;2023-05-10T05:30:58;12.10;96.30
23669;DHT22;12011;47.422;15.018;2023-05-10T05:33:28;12.70;92.80
23669;DHT22;12011;47.422;15.018;2023-05-10T05:36:00;12.60;92.00
23669;DHT22;12011;47.422;15.018;2023-05-10T05:38:30;12.70;91.60
23669;DHT22;12011;47.422;15.018;2023-05-10T05:41:00;12.90;91.40
23669;DHT22;12011;47.422;15.018;2023-05-10T05:43:39;12.90;90.10
23669;DHT22;12011;47.422;15.018;2023-05-10T05:46:10;13.10;86.60
23669;DHT22;12011;47.422;15.018;2023-05-10T05:48:39;13.20;84.80
23669;DHT22;12011;47.422;15.018;2023-05-10T05:51:09;13.90;87.60
23669;DHT22;12011;47.422;15.018;2023-05-10T05:53:53;14.50;77.70
23669;DHT22;12011;47.422;15.018;2023-05-10T05:56:47;14.80;70.00
23669;DHT22;12011;47.422;15.018;2023-05-10T05:59:56;14.60;70.00
23669;DHT22;12011;47.422;15.018;2023-05-10T06:05:31;14.60;72.60
23669;DHT22;12011;47.422;15.018;2023-05-10T06:08:00;14.60;74.70
23669;DHT22;12011;47.422;15.018;2023-05-10T06:10:30;14.60;70.10
23669;DHT22;12011;47.422;15.018;2023-05-10T06:12:59;14.70;69.80
23669;DHT22;12011;47.422;15.018;2023-05-10T06:15:31;14.80;76.20
23669;DHT22;12011;47.422;15.018;2023-05-10T06:18:01;15.70;64.20
23669;DHT22;12011;47.422;15.018;2023-05-10T06:20:31;15.70;59.40
23669;DHT22;12011;47.422;15.018;2023-05-10T06:23:01;15.40;62.80
23669;DHT22;12011;47.422;15.018;2023-05-10T06:25:30;15.10;63.00
23669;DHT22;12011;47.422;15.018;2023-05-10T06:28:00;14.60;63.90
23669;DHT22;12011;47.422;15.018;2023-05-10T06:30:32;14.70;68.40
23669;DHT22;12011;47.422;15.018;2023-05-10T06:33:02;15.10;68.80
23669;DHT22;12011;47.422;15.018;2023-05-10T06:35:34;15.00;66.10
23669;DHT22;12011;47.422;15.018;2023-05-10T06:38:05;14.80;70.00
23669;DHT22;12011;47.422;15.018;2023-05-10T06:40:34;14.60;71.10
23669;DHT22;12011;47.422;15.018;2023-05-10T06:43:04;14.70;70.90
23669;DHT22;12011;47.422;15.018;2023-05-10T06:45:36;14.90;68.30
23669;DHT22;12011;47.422;15.018;2023-05-10T06:48:05;14.80;65.70
23669;DHT22;12011;47.422;15.018;2023-05-10T06:50:35;15.20;66.20
23669;DHT22;12011;47.422;15.018;2023-05-10T06:53:05;15.20;64.50
23669;DHT22;12011;47.422;15.018;2023-05-10T06:55:34;15.80;59.30
23669;DHT22;12011;47.422;15.018;2023-05-10T06:58:04;15.80;64.10
23669;DHT22;12011;47.422;15.018;2023-05-10T07:00:36;15.80;57.40
23669;DHT22;12011;47.422;15.018;2023-05-10T07:03:06;15.70;59.10
23669;DHT22;12011;47.422;15.018;2023-05-10T07:05:36;15.90;57.50
23669;DHT22;12011;47.422;15.018;2023-05-10T07:08:05;16.80;53.50
23669;DHT22;12011;47.422;15.018;2023-05-10T07:10:35;18.10;50.60
23669;DHT22;12011;47.422;15.018;2023-05-10T07:13:04;19.00;50.70
23669;DHT22;12011;47.422;15.018;2023-05-10T07:15:36;20.10;46.40
23669;DHT22;12011;47.422;15.018;2023-05-10T07:18:06;20.80;42.90
23669;DHT22;12011;47.422;15.018;2023-05-10T07:20:35;19.70;40.80
23669;DHT22;12011;47.422;15.018;2023-05-10T07:23:05;19.90;43.50
23669;DHT22;12011;47.422;15.018;2023-05-10T07:25:34;21.10;41.00
23669;DHT22;12011;47.422;15.018;2023-05-10T07:28:05;21.00;37.30
23669;DHT22;12011;47.422;15.018;2023-05-10T07:30:37;21.10;37.00
23669;DHT22;12011;47.422;15.018;2023-05-10T07:33:07;21.50;37.20
23669;DHT22;12011;47.422;15.018;2023-05-10T07:35:37;21.40;34.90
23669;DHT22;12011;47.422;15.018;2023-05-10T07:38:06;21.30;35.50
23669;DHT22;12011;47.422;15.018;2023-05-10T07:40:37;21.10;35.70
23669;DHT22;12011;47.422;15.018;2023-05-10T07:43:08;21.10;38.10
23669;DHT22;12011;47.422;15.018;2023-05-10T07:45:40;21.40;35.90
23669;DHT22;12011;47.422;15.018;2023-05-10T07:48:09;21.70;33.80
23669;DHT22;12011;47.422;15.018;2023-05-10T07:50:42;22.20;38.20
23669;DHT22;12011;47.422;15.018;2023-05-10T07:54:12;23.20;38.80
23669;DHT22;12011;47.422;15.018;2023-05-10T07:56:59;22.70;35.00
23669;DHT22;12011;47.422;15.018;2023-05-10T07:59:42;22.70;34.30
23669;DHT22;12011;47.422;15.018;2023-05-10T08:05:22;23.00;35.20
23669;DHT22;12011;47.422;15.018;2023-05-10T08:10:57;23.80;36.00
23669;DHT22;12011;47.422;15.018;2023-05-10T08:16:28;23.80;34.30
23669;DHT22;12011;47.422;15.018;2023-05-10T08:19:30;23.90;31.80
23669;DHT22;12011;47.422;15.018;2023-05-10T08:25:39;23.40;29.10
23669;DHT22;12011;47.422;15.018;2023-05-10T08:28:19;24.00;31.00
23669;DHT22;12011;47.422;15.018;2023-05-10T08:31:07;23.40;28.00
23669;DHT22;12011;47.422;15.018;2023-05-10T08:36:49;24.00;30.10
23669;DHT22;12011;47.422;15.018;2023-05-10T08:39:37;24.60;29.00
23669;DHT22;12011;47.422;15.018;2023-05-10T08:42:40;23.00;29.20
23669;DHT22;12011;47.422;15.018;2023-05-10T08:48:50;23.30;30.00
23669;DHT22;12011;47.422;15.018;2023-05-10T09:00:50;23.00;31.60
23669;DHT22;12011;47.422;15.018;2023-05-10T09:03:40;22.80;32.40
23669;DHT22;12011;47.422;15.018;2023-05-10T09:06:45;21.90;32.00
23669;DHT22;12011;47.422;15.018;2023-05-10T09:12:22;20.80;33.50
23669;DHT22;12011;47.422;15.018;2023-05-10T09:29:41;22.30;31.50
23669;DHT22;12011;47.422;15.018;2023-05-10T09:48:35;23.90;28.40
23669;DHT22;12011;47.422;15.018;2023-05-10T09:51:25;24.80;29.20
23669;DHT22;12011;47.422;15.018;2023-05-10T09:54:22;24.50;30.00
23669;DHT22;12011;47.422;15.018;2023-05-10T10:06:11;22.50;29.00
23669;DHT22;12011;47.422;15.018;2023-05-10T10:18:18;21.50;34.70
23669;DHT22;12011;47.422;15.018;2023-05-10T10:31:00;21.60;33.70
23669;DHT22;12011;47.422;15.018;2023-05-10T10:34:25;20.90;36.40
23669;DHT22;12011;47.422;15.018;2023-05-10T10:37:17;22.30;36.00
23669;DHT22;12011;47.422;15.018;2023-05-10T11:22:55;23.20;37.80
23669;DHT22;12011;47.422;15.018;2023-05-10T11:47:02;20.90;36.40
23669;DHT22;12011;47.422;15.018;2023-05-10T11:56:11;20.30;39.90
23669;DHT22;12011;47.422;15.018;2023-05-10T12:04:53;20.00;41.20
23669;DHT22;12011;47.422;15.018;2023-05-10T12:07:42;20.50;43.10
23669;DHT22;12011;47.422;15.018;2023-05-10T12:16:28;19.10;45.00
23669;DHT22;12011;47.422;15.018;2023-05-10T12:19:26;19.40;47.90
23669;DHT22;12011;47.422;15.018;2023-05-10T12:25:25;18.60;40.40
23669;DHT22;12011;47.422;15.018;2023-05-10T12:31:12;18.10;43.80
23669;DHT22;12011;47.422;15.018;2023-05-10T12:46:22;18.00;46.60
23669;DHT22;12011;47.422;15.018;2023-05-10T13:34:13;16.80;42.70
23669;DHT22;12011;47.422;15.018;2023-05-10T13:36:54;17.10;43.50
23669;DHT22;12011;47.422;15.018;2023-05-10T13:42:37;18.00;40.90
23669;DHT22;12011;47.422;15.018;2023-05-10T15:32:53;15.00;65.20
23669;DHT22;12011;47.422;15.018;2023-05-10T15:35:23;15.00;66.40
23669;DHT22;12011;47.422;15.018;2023-05-10T15:37:53;15.00;60.90
23669;DHT22;12011;47.422;15.018;2023-05-10T15:40:22;14.80;63.40
23669;DHT22;12011;47.422;15.018;2023-05-10T15:42:52;14.60;74.90
23669;DHT22;12011;47.422;15.018;2023-05-10T15:45:21;14.60;67.70
23669;DHT22;12011;47.422;15.018;2023-05-10T15:47:54;14.40;66.80
23669;DHT22;12011;47.422;15.018;2023-05-10T15:50:23;14.60;62.80
23669;DHT22;12011;47.422;15.018;2023-05-10T15:52:54;14.70;62.90
23669;DHT22;12011;47.422;15.018;2023-05-10T15:55:50;14.70;62.40
23669;DHT22;12011;47.422;15.018;2023-05-10T15:58:41;14.60;59.60
23669;DHT22;12011;47.422;15.018;2023-05-10T16:01:11;14.40;69.80
23669;DHT22;12011;47.422;15.018;2023-05-10T16:06:55;14.00;72.30
23669;DHT22;12011;47.422;15.018;2023-05-10T16:09:34;13.90;70.70
23669;DHT22;12011;47.422;15.018;2023-05-10T16:12:04;13.80;74.30
23669;DHT22;12011;47.422;15.018;2023-05-10T16:14:33;13.70;76.70
23669;DHT22;12011;47.422;15.018;2023-05-10T16:17:03;13.70;81.90
23669;DHT22;12011;47.422;15.018;2023-05-10T16:19:34;13.70;73.70
23669;DHT22;12011;47.422;15.018;2023-05-10T16:25:05;13.80;77.80
23669;DHT22;12011;47.422;15.018;2023-05-10T16:37:07;13.70;82.80
23669;DHT22;12011;47.422;15.018;2023-05-10T16:46:36;13.80;69.70
23669;DHT22;12011;47.422;15.018;2023-05-10T16:49:45;13.70;90.70
23669;DHT22;12011;47.422;15.018;2023-05-10T17:51:54;12.90;98.90
23669;DHT22;12011;47.422;15.018;2023-05-10T17:54:56;12.90;99.10
23669;DHT22;12011;47.422;15.018;2023-05-10T17:57:50;12.90;99.50
23669;DHT22;12011;47.422;15.018;2023-05-10T18:00:32;12.70;99.90
23669;DHT22;12011;47.422;15.018;2023-05-10T18:03:27;12.80;99.90
23669;DHT22;12011;47.422;15.018;2023-05-10T18:06:26;12.70;99.90
23669;DHT22;12011;47.422;15.018;2023-05-10T18:14:58;12.40;99.90
23669;DHT22;12011;47.422;15.018;2023-05-10T18:26:42;12.20;98.00
23669;DHT22;12011;47.422;15.018;2023-05-10T18:29:54;12.20;99.80
23669;DHT22;12011;47.422;15.018;2023-05-10T18:35:51;12.20;99.90
23669;DHT22;12011;47.422;15.018;2023-05-10T18:45:14;11.90;99.90
23669;DHT22;12011;47.422;15.018;2023-05-10T18:48:08;10.90;99.90
23669;DHT22;12011;47.422;15.018;2023-05-10T18:54:12;11.70;99.90
23669;DHT22;12011;47.422;15.018;2023-05-10T18:57:25;11.70;99.90
23669;DHT22;12011;47.422;15.018;2023-05-10T19:06:31;11.70;99.90
23669;DHT22;12011;47.422;15.018;2023-05-10T19:09:12;11.50;99.90
23669;DHT22;12011;47.422;15.018;2023-05-10T19:12:06;11.70;99.90
23669;DHT22;12011;47.422;15.018;2023-05-10T19:14:58;11.70;99.90
23669;DHT22;12011;47.422;15.018;2023-05-10T19:20:42;11.80;97.70
23669;DHT22;12011;47.422;15.018;2023-05-10T19:26:49;12.60;99.90
23669;DHT22;12011;47.422;15.018;2023-05-10T19:35:38;11.50;99.90
23669;DHT22;12011;47.422;15.018;2023-05-10T19:38:37;11.80;99.90
23669;DHT22;12011;47.422;15.018;2023-05-10T19:41:34;12.70;99.90
23669;DHT22;12011;47.422;15.018;2023-05-10T19:44:32;11.50;99.90
23669;DHT22;12011;47.422;15.018;2023-05-10T19:47:19;11.50;99.90
23669;DHT22;12011;47.422;15.018;2023-05-10T19:49:50;11.50;99.90
23669;DHT22;12011;47.422;15.018;2023-05-10T19:52:25;11.50;99.90
23669;DHT22;12011;47.422;15.018;2023-05-10T19:54:59;11.60;99.90
23669;DHT22;12011;47.422;15.018;2023-05-10T19:57:37;11.50;99.90
23669;DHT22;12011;47.422;15.018;2023-05-10T20:00:13;11.50;99.90
23669;DHT22;12011;47.422;15.018;2023-05-10T20:02:45;11.50;99.90
23669;DHT22;12011;47.422;15.018;2023-05-10T20:05:15;11.40;99.90
23669;DHT22;12011;47.422;15.018;2023-05-10T20:07:51;11.40;99.90
23669;DHT22;12011;47.422;15.018;2023-05-10T20:10:24;11.40;99.90
23669;DHT22;12011;47.422;15.018;2023-05-10T20:13:23;11.50;99.90
23669;DHT22;12011;47.422;15.018;2023-05-10T20:15:55;11.50;99.90
23669;DHT22;12011;47.422;15.018;2023-05-10T20:18:28;11.60;99.90
23669;DHT22;12011;47.422;15.018;2023-05-10T20:20:59;11.50;99.90
23669;DHT22;12011;47.422;15.018;2023-05-10T20:23:37;11.50;99.90
23669;DHT22;12011;47.422;15.018;2023-05-10T20:26:09;11.30;99.90
23669;DHT22;12011;47.422;15.018;2023-05-10T20:28:50;11.30;99.90
23669;DHT22;12011;47.422;15.018;2023-05-10T20:31:29;11.30;99.90
23669;DHT22;12011;47.422;15.018;2023-05-10T20:34:03;11.30;99.90
23669;DHT22;12011;47.422;15.018;2023-05-10T20:36:43;11.30;99.90
23669;DHT22;12011;47.422;15.018;2023-05-10T20:39:29;11.30;99.90
23669;DHT22;12011;47.422;15.018;2023-05-10T20:42:05;11.30;99.90
23669;DHT22;12011;47.422;15.018;2023-05-10T20:44:43;11.30;99.90
23669;DHT22;12011;47.422;15.018;2023-05-10T20:47:17;11.30;99.90
23669;DHT22;12011;47.422;15.018;2023-05-10T20:49:52;11.20;99.90
23669;DHT22;12011;47.422;15.018;2023-05-10T20:52:30;11.30;99.90
23669;DHT22;12011;47.422;15.018;2023-05-10T20:55:12;11.30;99.90
23669;DHT22;12011;47.422;15.018;2023-05-10T20:57:51;11.20;99.90
23669;DHT22;12011;47.422;15.018;2023-05-10T21:00:25;11.10;99.90
23669;DHT22;12011;47.422;15.018;2023-05-10T21:03:04;11.10;99.90
23669;DHT22;12011;47.422;15.018;2023-05-10T21:05:46;11.00;99.90
23669;DHT22;12011;47.422;15.018;2023-05-10T21:08:24;11.00;99.90
23669;DHT22;12011;47.422;15.018;2023-05-10T21:11:03;10.80;99.90
23669;DHT22;12011;47.422;15.018;2023-05-10T21:13:37;10.90;99.90
23669;DHT22;12011;47.422;15.018;2023-05-10T21:16:09;10.80;99.90
23669;DHT22;12011;47.422;15.018;2023-05-10T21:18:41;10.20;99.90
23669;DHT22;12011;47.422;15.018;2023-05-10T21:21:14;10.80;99.90
23669;DHT22;12011;47.422;15.018;2023-05-10T21:23:51;10.70;99.90
23669;DHT22;12011;47.422;15.018;2023-05-10T21:26:33;10.70;99.90
23669;DHT22;12011;47.422;15.018;2023-05-10T21:29:10;10.70;99.90
23669;DHT22;12011;47.422;15.018;2023-05-10T21:31:43;10.70;99.90
23669;DHT22;12011;47.422;15.018;2023-05-10T21:34:15;10.60;99.90
23669;DHT22;12011;47.422;15.018;2023-05-10T21:36:46;10.60;99.90
23669;DHT22;12011;47.422;15.018;2023-05-10T21:39:19;10.60;99.90
23669;DHT22;12011;47.422;15.018;2023-05-10T21:41:53;10.60;99.90
23669;DHT22;12011;47.422;15.018;2023-05-10T21:44:29;10.50;99.90
23669;DHT22;12011;47.422;15.018;2023-05-10T21:47:04;10.50;99.90
23669;DHT22;12011;47.422;15.018;2023-05-10T21:49:34;10.40;99.90
23669;DHT22;12011;47.422;15.018;2023-05-10T21:52:04;10.40;99.90
23669;DHT22;12011;47.422;15.018;2023-05-10T21:54:37;10.50;99.90
23669;DHT22;12011;47.422;15.018;2023-05-10T21:57:11;10.40;99.90
23669;DHT22;12011;47.422;15.018;2023-05-10T21:59:42;10.40;99.90
23669;DHT22;12011;47.422;15.018;2023-05-10T22:02:17;10.40;99.90
23669;DHT22;12011;47.422;15.018;2023-05-10T22:04:50;10.40;99.90
23669;DHT22;12011;47.422;15.018;2023-05-10T22:07:19;10.40;99.90
23669;DHT22;12011;47.422;15.018;2023-05-10T22:10:00;10.40;99.90
23669;DHT22;12011;47.422;15.018;2023-05-10T22:12:34;10.40;99.90
23669;DHT22;12011;47.422;15.018;2023-05-10T22:15:10;10.30;99.90
23669;DHT22;12011;47.422;15.018;2023-05-10T22:17:45;10.20;99.90
23669;DHT22;12011;47.422;15.018;2023-05-10T22:20:18;10.20;99.90
23669;DHT22;12011;47.422;15.018;2023-05-10T22:22:50;10.20;99.90
23669;DHT22;12011;47.422;15.018;2023-05-10T22:25:27;10.20;99.90
23669;DHT22;12011;47.422;15.018;2023-05-10T22:28:07;10.20;99.90
23669;DHT22;12011;47.422;15.018;2023-05-10T22:30:43;10.20;99.90
23669;DHT22;12011;47.422;15.018;2023-05-10T22:33:15;10.20;99.90
23669;DHT22;12011;47.422;15.018;2023-05-10T22:35:45;10.10;99.90
23669;DHT22;12011;47.422;15.018;2023-05-10T22:38:17;10.10;99.90
23669;DHT22;12011;47.422;15.018;2023-05-10T22:40:51;10.10;99.90
23669;DHT22;12011;47.422;15.018;2023-05-10T22:43:26;10.10;99.90
23669;DHT22;12011;47.422;15.018;2023-05-10T22:45:56;10.10;99.90
23669;DHT22;12011;47.422;15.018;2023-05-10T22:48:28;10.10;99.90
23669;DHT22;12011;47.422;15.018;2023-05-10T22:51:00;10.00;99.90
23669;DHT22;12011;47.422;15.018;2023-05-10T22:53:34;10.00;99.90
23669;DHT22;12011;47.422;15.018;2023-05-10T22:56:05;10.10;99.90
23669;DHT22;12011;47.422;15.018;2023-05-10T22:58:42;10.00;99.90
23669;DHT22;12011;47.422;15.018;2023-05-10T23:01:18;10.00;99.90
23669;DHT22;12011;47.422;15.018;2023-05-10T23:03:52;10.00;99.90
23669;DHT22;12011;47.422;15.018;2023-05-10T23:06:25;10.00;99.90
23669;DHT22;12011;47.422;15.018;2023-05-10T23:08:55;9.90;99.90
23669;DHT22;12011;47.422;15.018;2023-05-10T23:11:27;9.90;99.90
23669;DHT22;12011;47.422;15.018;2023-05-10T23:14:00;9.90;99.90
23669;DHT22;12011;47.422;15.018;2023-05-10T23:16:36;9.90;99.90
23669;DHT22;12011;47.422;15.018;2023-05-10T23:19:09;9.90;99.90
23669;DHT22;12011;47.422;15.018;2023-05-10T23:21:41;9.90;99.90
23669;DHT22;12011;47.422;15.018;2023-05-10T23:24:19;9.70;99.90
23669;DHT22;12011;47.422;15.018;2023-05-10T23:27:01;9.90;99.90
23669;DHT22;12011;47.422;15.018;2023-05-10T23:29:34;9.90;99.90
23669;DHT22;12011;47.422;15.018;2023-05-10T23:32:05;9.90;99.90
23669;DHT22;12011;47.422;15.018;2023-05-10T23:34:44;9.90;99.90
23669;DHT22;12011;47.422;15.018;2023-05-10T23:37:15;9.90;99.90
23669;DHT22;12011;47.422;15.018;2023-05-10T23:39:50;9.80;99.90
23669;DHT22;12011;47.422;15.018;2023-05-10T23:42:24;9.90;99.90
23669;DHT22;12011;47.422;15.018;2023-05-10T23:44:57;9.90;99.90
23669;DHT22;12011;47.422;15.018;2023-05-10T23:47:28;9.80;99.90
23669;DHT22;12011;47.422;15.018;2023-05-10T23:50:01;9.90;99.90
23669;DHT22;12011;47.422;15.018;2023-05-10T23:52:51;9.80;99.90
23669;DHT22;12011;47.422;15.018;2023-05-10T23:55:26;9.80;99.90
23669;DHT22;12011;47.422;15.018;2023-05-10T23:57:56;9.80;99.90
